createdAt,value
2023-12-12T00:02:26.209Z,1.31
2023-12-12T00:04:53.004Z,1.30
2023-12-12T00:07:22.940Z,1.33
2023-12-12T00:09:49.731Z,1.33
2023-12-12T00:12:16.787Z,1.28
2023-12-12T00:14:47.728Z,1.25
2023-12-12T00:17:14.834Z,1.25
2023-12-12T00:19:44.781Z,1.19
2023-12-12T00:22:15.472Z,1.24
2023-12-12T00:24:42.344Z,1.24
2023-12-12T00:27:09.415Z,1.25
2023-12-12T00:29:37.222Z,1.31
2023-12-12T00:32:07.896Z,1.35
2023-12-12T00:34:38.785Z,1.50
2023-12-12T00:37:08.791Z,1.49
2023-12-12T00:39:40.303Z,1.52
2023-12-12T00:42:13.179Z,1.50
2023-12-12T00:44:40.057Z,1.50
2023-12-12T00:47:07.133Z,1.51
2023-12-12T00:49:37.098Z,1.61
2023-12-12T00:52:05.513Z,1.75
2023-12-12T00:54:37.568Z,1.76
2023-12-12T00:57:05.009Z,1.88
2023-12-12T00:59:31.769Z,1.78
2023-12-12T01:01:58.950Z,1.70
2023-12-12T01:04:25.827Z,1.62
2023-12-12T01:06:55.961Z,1.57
2023-12-12T01:09:22.754Z,1.51
2023-12-12T01:11:49.800Z,1.48
2023-12-12T01:14:16.621Z,1.47
2023-12-12T01:16:43.809Z,1.76
2023-12-12T01:19:10.756Z,1.66
2023-12-12T01:21:38.388Z,1.73
2023-12-12T01:24:05.400Z,1.79
2023-12-12T01:26:32.477Z,1.95
2023-12-12T01:28:59.355Z,1.92
2023-12-12T01:31:29.276Z,1.84
2023-12-12T01:33:56.207Z,1.92
2023-12-12T01:36:23.429Z,1.88
2023-12-12T01:38:50.546Z,1.87
2023-12-12T01:41:18.636Z,1.83
2023-12-12T01:43:47.862Z,1.76
2023-12-12T01:46:17.943Z,1.70
2023-12-12T01:48:45.328Z,1.72
2023-12-12T01:51:12.702Z,1.73
2023-12-12T01:53:44.307Z,1.75
2023-12-12T01:56:12.860Z,1.76
2023-12-12T01:58:42.078Z,1.77
2023-12-12T02:01:09.959Z,1.80
2023-12-12T02:03:37.721Z,1.78
2023-12-12T02:06:06.574Z,1.79
2023-12-12T02:08:33.680Z,1.74
2023-12-12T02:11:00.853Z,1.74
2023-12-12T02:13:33.612Z,1.72
2023-12-12T02:16:00.838Z,1.69
2023-12-12T02:18:28.332Z,1.61
2023-12-12T02:20:55.773Z,1.49
2023-12-12T02:23:25.557Z,1.42
2023-12-12T02:25:52.693Z,1.38
2023-12-12T02:28:19.547Z,1.52
2023-12-12T02:30:46.606Z,1.49
2023-12-12T02:33:13.479Z,1.53
2023-12-12T02:35:40.738Z,1.61
2023-12-12T02:38:07.565Z,1.68
2023-12-12T02:40:35.017Z,1.87
2023-12-12T02:43:01.911Z,1.83
2023-12-12T02:45:28.986Z,1.84
2023-12-12T02:47:55.852Z,1.83
2023-12-12T02:50:24.941Z,1.82
2023-12-12T02:52:53.861Z,1.87
2023-12-12T02:55:21.024Z,1.88
2023-12-12T02:57:47.919Z,1.90
2023-12-12T03:00:15.469Z,1.91
2023-12-12T03:02:42.344Z,2.11
2023-12-12T03:05:09.570Z,2.14
2023-12-12T03:07:37.020Z,2.19
2023-12-12T03:10:05.153Z,2.17
2023-12-12T03:12:32.345Z,2.14
2023-12-12T03:14:59.428Z,2.15
2023-12-12T03:17:30.011Z,2.09
2023-12-12T03:19:57.287Z,2.06
2023-12-12T03:22:24.206Z,2.07
2023-12-12T03:24:51.352Z,2.30
2023-12-12T03:27:21.186Z,2.34
2023-12-12T03:29:51.092Z,2.25
2023-12-12T03:32:18.200Z,2.03
2023-12-12T03:34:45.407Z,1.90
2023-12-12T03:37:16.776Z,1.81
2023-12-12T03:39:43.918Z,1.74
2023-12-12T03:42:13.431Z,1.67
2023-12-12T03:44:43.354Z,1.65
2023-12-12T03:47:11.393Z,1.61
2023-12-12T03:49:41.508Z,1.71
2023-12-12T03:52:08.641Z,1.69
2023-12-12T03:54:36.470Z,1.78
2023-12-12T03:57:04.355Z,1.78
2023-12-12T03:59:31.479Z,1.83
2023-12-12T04:01:58.653Z,1.87
2023-12-12T04:04:27.319Z,2.13
2023-12-12T04:06:54.227Z,2.03
2023-12-12T04:09:21.592Z,1.92
2023-12-12T04:11:51.138Z,2.00
2023-12-12T04:14:19.530Z,1.98
2023-12-12T04:16:47.952Z,2.00
2023-12-12T04:19:15.105Z,2.10
2023-12-12T04:21:45.336Z,2.04
2023-12-12T04:24:12.730Z,1.98
2023-12-12T04:26:39.573Z,1.98
2023-12-12T04:29:06.741Z,1.96
2023-12-12T04:31:33.597Z,1.92
2023-12-12T04:34:00.792Z,1.90
2023-12-12T04:36:28.064Z,1.87
2023-12-12T04:38:55.177Z,1.86
2023-12-12T04:41:22.320Z,1.86
2023-12-12T04:43:49.391Z,1.87
2023-12-12T04:46:20.685Z,1.85
2023-12-12T04:48:48.139Z,1.83
2023-12-12T04:51:15.312Z,1.88
2023-12-12T04:53:45.346Z,1.92
2023-12-12T04:56:13.107Z,2.07
2023-12-12T04:58:43.378Z,2.00
2023-12-12T05:01:10.512Z,1.96
2023-12-12T05:03:37.680Z,1.92
2023-12-12T05:06:04.999Z,1.91
2023-12-12T05:08:32.205Z,1.87
2023-12-12T05:10:59.948Z,1.85
2023-12-12T05:13:27.281Z,1.85
2023-12-12T05:15:57.485Z,1.84
2023-12-12T05:18:26.243Z,1.78
2023-12-12T05:20:54.046Z,1.77
2023-12-12T05:23:21.094Z,1.75
2023-12-12T05:25:48.002Z,1.72
2023-12-12T05:28:18.220Z,1.63
2023-12-12T05:30:48.283Z,1.56
2023-12-12T05:33:15.480Z,1.50
2023-12-12T05:35:42.394Z,1.42
2023-12-12T05:38:09.480Z,1.35
2023-12-12T05:40:39.394Z,1.28
2023-12-12T05:43:06.494Z,1.24
2023-12-12T05:45:33.962Z,1.18
2023-12-12T05:48:01.223Z,1.22
2023-12-12T05:50:28.163Z,1.21
2023-12-12T05:52:57.362Z,1.54
2023-12-12T05:55:25.209Z,1.88
2023-12-12T05:57:52.480Z,2.03
2023-12-12T06:00:22.394Z,2.23
2023-12-12T06:02:52.812Z,2.38
2023-12-12T06:05:20.758Z,2.24
2023-12-12T06:07:51.859Z,2.06
2023-12-12T06:10:20.677Z,1.86
2023-12-12T06:12:48.820Z,1.75
2023-12-12T06:15:15.769Z,1.68
2023-12-12T06:17:45.648Z,1.61
2023-12-12T06:20:13.162Z,1.64
2023-12-12T06:22:40.369Z,1.67
2023-12-12T06:25:07.870Z,1.69
2023-12-12T06:27:35.441Z,1.72
2023-12-12T06:30:02.627Z,1.75
2023-12-12T06:32:31.215Z,1.74
2023-12-12T06:34:58.293Z,1.73
2023-12-12T06:37:25.393Z,1.69
2023-12-12T06:39:55.657Z,1.65
2023-12-12T06:42:22.776Z,1.74
2023-12-12T06:44:49.899Z,1.78
2023-12-12T06:47:17.032Z,1.81
2023-12-12T06:49:47.324Z,1.81
2023-12-12T06:52:14.666Z,1.86
2023-12-12T06:54:41.574Z,1.86
2023-12-12T06:57:12.060Z,1.83
2023-12-12T06:59:38.925Z,1.86
2023-12-12T07:02:09.787Z,1.89
2023-12-12T07:04:37.810Z,1.95
2023-12-12T07:07:05.989Z,1.99
2023-12-12T07:09:32.897Z,1.98
2023-12-12T07:14:47.529Z,2.06
2023-12-12T07:17:14.691Z,2.12
2023-12-12T07:19:41.678Z,2.15
2023-12-12T07:22:09.408Z,2.20
2023-12-12T07:24:44.106Z,2.52
2023-12-12T07:27:11.640Z,2.51
2023-12-12T07:29:38.913Z,2.51
2023-12-12T07:32:06.776Z,2.54
2023-12-12T07:34:33.705Z,2.54
2023-12-12T07:37:03.416Z,2.58
2023-12-12T07:39:31.793Z,2.56
2023-12-12T07:41:59.039Z,2.61
2023-12-12T07:44:26.246Z,2.64
2023-12-12T07:46:53.451Z,2.66
2023-12-12T07:49:21.463Z,2.67
2023-12-12T07:51:52.300Z,2.74
2023-12-12T07:54:19.196Z,2.80
2023-12-12T07:56:54.514Z,3.10
2023-12-12T07:59:21.455Z,3.01
2023-12-12T08:01:53.418Z,3.38
2023-12-12T08:04:20.966Z,3.49
2023-12-12T08:06:48.177Z,3.71
2023-12-12T08:09:15.060Z,3.67
2023-12-12T08:11:42.167Z,3.60
2023-12-12T08:14:11.873Z,3.76
2023-12-12T08:16:39.099Z,3.80
2023-12-12T08:19:06.078Z,3.97
2023-12-12T08:21:37.052Z,4.14
2023-12-12T08:24:07.271Z,4.35
2023-12-12T08:26:42.706Z,4.30
2023-12-12T08:29:10.568Z,4.21
2023-12-12T08:31:40.393Z,4.20
2023-12-12T08:34:07.466Z,4.16
2023-12-12T08:36:35.216Z,4.19
2023-12-12T08:39:02.408Z,4.21
2023-12-12T08:41:32.041Z,4.22
2023-12-12T08:44:00.952Z,4.26
2023-12-12T08:46:29.967Z,4.42
2023-12-12T08:48:58.002Z,4.68
2023-12-12T08:51:25.621Z,4.76
2023-12-12T08:53:53.671Z,4.90
2023-12-12T08:56:23.242Z,5.17
2023-12-12T08:58:52.243Z,5.25
2023-12-12T09:01:19.633Z,5.16
2023-12-12T09:03:47.298Z,5.09
2023-12-12T09:06:17.498Z,5.08
2023-12-12T09:08:45.269Z,5.12
2023-12-12T09:11:15.129Z,5.15
2023-12-12T09:13:43.963Z,5.25
2023-12-12T09:16:11.493Z,5.48
2023-12-12T09:18:39.059Z,5.65
2023-12-12T09:21:08.091Z,5.74
2023-12-12T09:23:35.847Z,5.87
2023-12-12T09:26:03.165Z,6.00
2023-12-12T09:28:30.070Z,6.61
2023-12-12T09:30:57.232Z,6.96
2023-12-12T09:33:24.574Z,7.17
2023-12-12T09:35:51.676Z,7.21
2023-12-12T09:38:18.504Z,7.67
2023-12-12T09:40:45.652Z,7.94
2023-12-12T09:43:16.477Z,8.28
2023-12-12T09:45:49.475Z,8.60
2023-12-12T09:48:18.252Z,8.84
2023-12-12T09:50:48.644Z,9.03
2023-12-12T09:53:16.257Z,9.23
2023-12-12T09:55:45.008Z,9.42
2023-12-12T09:58:12.960Z,9.42
2023-12-12T10:00:43.746Z,9.58
2023-12-12T10:03:14.238Z,9.62
2023-12-12T10:05:47.665Z,9.62
2023-12-12T10:08:16.029Z,9.91
2023-12-12T10:10:43.572Z,10.01
2023-12-12T10:13:10.822Z,10.25
2023-12-12T10:15:39.176Z,10.42
2023-12-12T10:18:06.773Z,10.78
2023-12-12T10:20:36.833Z,10.98
2023-12-12T10:23:05.855Z,11.10
2023-12-12T10:25:34.494Z,11.36
2023-12-12T10:28:02.727Z,11.51
2023-12-12T10:30:30.151Z,11.37
2023-12-12T10:32:57.325Z,10.68
2023-12-12T10:35:26.609Z,10.21
2023-12-12T10:37:55.953Z,10.76
2023-12-12T10:40:24.397Z,10.16
2023-12-12T10:42:52.389Z,10.45
2023-12-12T10:45:21.875Z,10.45
2023-12-12T10:47:51.685Z,10.75
2023-12-12T10:50:20.176Z,11.22
2023-12-12T10:52:49.198Z,11.52
2023-12-12T10:55:17.513Z,11.29
2023-12-12T10:57:46.578Z,11.67
2023-12-12T11:00:18.162Z,11.45
2023-12-12T11:02:47.489Z,11.80
2023-12-12T11:05:16.327Z,11.87
2023-12-12T11:07:47.814Z,12.31
2023-12-12T11:10:16.783Z,12.01
2023-12-12T11:12:52.239Z,11.99
2023-12-12T11:15:20.734Z,11.99
2023-12-12T11:17:49.442Z,12.23
2023-12-12T11:20:18.896Z,12.28
2023-12-12T11:22:51.991Z,12.20
2023-12-12T11:25:24.217Z,12.24
2023-12-12T11:27:57.095Z,12.06
2023-12-12T11:30:50.365Z,11.97
2023-12-12T11:33:17.391Z,12.00
2023-12-12T11:35:47.144Z,11.79
2023-12-12T11:38:34.787Z,11.38
2023-12-12T11:41:15.725Z,11.00
2023-12-12T11:43:46.834Z,10.91
2023-12-12T11:46:24.703Z,10.81
2023-12-12T11:48:51.801Z,10.91
2023-12-12T11:51:47.630Z,11.06
2023-12-12T11:54:23.177Z,10.82
2023-12-12T11:56:59.727Z,10.57
2023-12-12T11:59:30.544Z,10.28
2023-12-12T12:01:57.647Z,10.07
2023-12-12T12:04:24.581Z,9.89
2023-12-12T12:06:54.101Z,9.84
2023-12-12T12:09:20.987Z,9.85
2023-12-12T12:11:54.633Z,9.88
2023-12-12T12:14:23.395Z,10.00
2023-12-12T12:16:54.522Z,9.93
2023-12-12T12:19:34.519Z,9.96
2023-12-12T12:22:06.012Z,9.92
2023-12-12T12:24:34.532Z,9.63
2023-12-12T12:27:01.722Z,9.56
2023-12-12T12:29:28.544Z,9.52
2023-12-12T12:31:55.743Z,9.48
2023-12-12T12:34:25.191Z,9.42
2023-12-12T12:37:00.017Z,9.41
2023-12-12T12:39:27.924Z,9.45
2023-12-12T12:41:56.003Z,9.67
2023-12-12T12:44:23.221Z,9.70
2023-12-12T12:46:53.567Z,9.67
2023-12-12T12:49:21.624Z,9.59
2023-12-12T12:51:48.834Z,9.58
2023-12-12T12:54:16.752Z,9.73
2023-12-12T12:56:45.937Z,9.37
2023-12-12T12:59:19.426Z,9.07
2023-12-12T13:01:46.574Z,9.06
2023-12-12T13:04:14.075Z,9.04
2023-12-12T13:06:41.757Z,8.95
2023-12-12T13:09:18.607Z,8.95
2023-12-12T13:11:48.902Z,8.88
2023-12-12T13:14:15.768Z,8.95
2023-12-12T13:16:45.277Z,8.90
2023-12-12T13:19:14.637Z,8.81
2023-12-12T13:21:42.171Z,8.77
2023-12-12T13:24:09.104Z,8.70
2023-12-12T13:26:39.140Z,8.74
2023-12-12T13:29:05.965Z,8.70
2023-12-12T13:31:33.772Z,8.60
2023-12-12T13:34:07.269Z,8.51
2023-12-12T13:36:34.925Z,8.47
2023-12-12T13:39:01.763Z,8.45
2023-12-12T13:41:29.007Z,8.35
2023-12-12T13:43:59.348Z,8.39
2023-12-12T13:46:26.629Z,8.35
2023-12-12T13:48:53.625Z,8.27
2023-12-12T13:51:25.326Z,8.35
2023-12-12T13:53:57.539Z,8.42
2023-12-12T13:56:25.424Z,8.50
2023-12-12T13:58:58.781Z,8.44
2023-12-12T14:01:31.259Z,8.45
2023-12-12T14:04:02.493Z,8.42
2023-12-12T14:06:35.168Z,8.32
2023-12-12T14:09:01.943Z,8.34
2023-12-12T14:11:30.122Z,8.27
2023-12-12T14:13:57.007Z,8.20
2023-12-12T14:16:28.801Z,8.23
2023-12-12T14:18:57.723Z,8.11
2023-12-12T14:21:26.021Z,8.08
2023-12-12T14:23:52.898Z,8.09
2023-12-12T14:26:23.315Z,8.04
2023-12-12T14:28:51.229Z,8.00
2023-12-12T14:31:19.444Z,8.00
2023-12-12T14:33:47.136Z,7.93
2023-12-12T14:36:15.457Z,7.91
2023-12-12T14:38:45.040Z,7.91
2023-12-12T14:41:12.388Z,7.79
2023-12-12T14:43:47.082Z,7.75
2023-12-12T14:46:22.253Z,7.69
2023-12-12T14:48:49.210Z,7.65
2023-12-12T14:51:23.829Z,7.65
2023-12-12T14:53:51.940Z,7.55
2023-12-12T14:56:19.237Z,7.52
2023-12-12T14:58:46.882Z,7.48
2023-12-12T15:01:14.465Z,7.37
2023-12-12T15:03:43.601Z,7.32
2023-12-12T15:06:11.143Z,7.27
2023-12-12T15:08:39.479Z,7.12
2023-12-12T15:11:07.027Z,7.11
2023-12-12T15:13:34.207Z,7.07
2023-12-12T15:16:04.528Z,6.96
2023-12-12T15:18:31.469Z,6.92
2023-12-12T15:21:02.874Z,6.94
2023-12-12T15:23:29.693Z,6.79
2023-12-12T15:25:58.372Z,6.62
2023-12-12T15:28:27.745Z,6.62
2023-12-12T15:30:57.533Z,6.64
2023-12-12T15:33:26.774Z,6.59
2023-12-12T15:35:57.440Z,6.47
2023-12-12T15:38:24.285Z,6.45
2023-12-12T15:40:52.380Z,6.41
2023-12-12T15:43:19.295Z,6.31
2023-12-12T15:45:46.420Z,6.24
2023-12-12T15:48:13.478Z,6.37
2023-12-12T15:50:41.924Z,6.36
2023-12-12T15:53:08.956Z,6.45
2023-12-12T15:55:36.124Z,6.38
2023-12-12T15:58:03.137Z,6.34
2023-12-12T16:00:33.042Z,6.37
2023-12-12T16:02:59.999Z,6.28
2023-12-12T16:05:27.621Z,6.27
2023-12-12T16:07:57.714Z,6.19
2023-12-12T16:10:24.819Z,6.22
2023-12-12T16:12:57.651Z,6.33
2023-12-12T16:15:25.250Z,6.24
2023-12-12T16:17:55.417Z,6.23
2023-12-12T16:20:27.174Z,6.17
2023-12-12T16:22:54.949Z,6.00
2023-12-12T16:25:28.067Z,5.91
2023-12-12T16:27:55.100Z,5.78
2023-12-12T16:30:32.077Z,5.68
2023-12-12T16:33:00.923Z,5.63
2023-12-12T16:35:31.883Z,5.73
2023-12-12T16:38:01.884Z,5.68
2023-12-12T16:40:29.042Z,5.56
2023-12-12T16:42:56.090Z,5.55
2023-12-12T16:45:23.133Z,5.50
2023-12-12T16:47:50.012Z,5.53
2023-12-12T16:50:21.373Z,5.65
2023-12-12T16:52:48.298Z,5.56
2023-12-12T16:55:15.692Z,5.48
2023-12-12T16:57:42.615Z,5.42
2023-12-12T17:00:12.097Z,5.40
2023-12-12T17:02:42.572Z,5.36
2023-12-12T17:05:12.898Z,5.35
2023-12-12T17:07:39.938Z,5.38
2023-12-12T17:10:10.204Z,5.36
2023-12-12T17:12:37.571Z,5.35
2023-12-12T17:15:07.811Z,5.34
2023-12-12T17:17:35.291Z,5.30
2023-12-12T17:20:03.620Z,5.40
2023-12-12T17:22:35.084Z,5.68
2023-12-12T17:25:02.199Z,5.76
2023-12-12T17:27:29.047Z,5.78
2023-12-12T17:29:56.126Z,5.65
2023-12-12T17:32:28.006Z,5.57
2023-12-12T17:35:00.005Z,5.54
2023-12-12T17:37:27.027Z,5.52
2023-12-12T17:39:54.171Z,5.48
2023-12-12T17:42:25.899Z,5.46
2023-12-12T17:44:53.750Z,5.45
2023-12-12T17:47:20.628Z,5.45
2023-12-12T17:49:47.794Z,5.40
2023-12-12T17:52:16.152Z,5.34
2023-12-12T17:54:43.382Z,5.29
2023-12-12T17:57:11.622Z,5.26
2023-12-12T17:59:42.186Z,5.24
2023-12-12T18:02:12.274Z,5.20
2023-12-12T18:04:41.006Z,5.17
2023-12-12T18:07:12.122Z,5.13
2023-12-12T18:09:40.746Z,5.10
2023-12-12T18:12:08.044Z,5.10
2023-12-12T18:14:35.177Z,5.12
2023-12-12T18:17:04.998Z,5.09
2023-12-12T18:19:32.984Z,5.03
2023-12-12T18:21:59.926Z,4.98
2023-12-12T18:24:30.037Z,5.04
2023-12-12T18:26:58.493Z,5.04
2023-12-12T18:29:27.095Z,5.01
2023-12-12T18:31:54.691Z,4.99
2023-12-12T18:34:30.765Z,5.02
2023-12-12T18:36:57.730Z,5.03
2023-12-12T18:39:27.526Z,4.97
2023-12-12T18:41:56.862Z,5.04
2023-12-12T18:44:23.979Z,5.04
2023-12-12T18:46:51.326Z,5.00
2023-12-12T18:49:18.675Z,5.02
2023-12-12T18:51:45.598Z,5.07
2023-12-12T18:54:15.562Z,5.11
2023-12-12T18:56:44.927Z,5.17
2023-12-12T18:59:12.354Z,5.17
2023-12-12T19:01:39.313Z,5.17
2023-12-12T19:04:08.127Z,5.16
2023-12-12T19:06:37.952Z,5.15
2023-12-12T19:09:07.937Z,5.12
2023-12-12T19:11:40.146Z,5.18
2023-12-12T19:14:07.211Z,5.20
2023-12-12T19:16:37.583Z,5.26
2023-12-12T19:19:04.800Z,5.22
2023-12-12T19:21:31.697Z,5.15
2023-12-12T19:23:58.791Z,5.18
2023-12-12T19:26:25.874Z,5.19
2023-12-12T19:28:55.264Z,5.20
2023-12-12T19:31:22.216Z,5.15
2023-12-12T19:33:49.452Z,5.13
2023-12-12T19:36:16.688Z,5.11
2023-12-12T19:38:43.794Z,5.08
2023-12-12T19:41:10.796Z,5.06
2023-12-12T19:43:38.017Z,5.09
2023-12-12T19:46:09.020Z,5.03
2023-12-12T19:48:37.458Z,5.02
2023-12-12T19:51:07.324Z,5.04
2023-12-12T19:53:39.656Z,5.05
2023-12-12T19:56:06.800Z,5.05
2023-12-12T19:58:36.612Z,5.06
2023-12-12T20:01:03.640Z,5.09
2023-12-12T20:03:31.627Z,5.10
2023-12-12T20:06:03.623Z,5.09
2023-12-12T20:08:34.501Z,5.09
2023-12-12T20:11:05.038Z,5.08
2023-12-12T20:13:32.191Z,5.07
2023-12-12T20:15:59.026Z,5.04
2023-12-12T20:18:27.256Z,5.04
2023-12-12T20:20:54.176Z,4.96
2023-12-12T20:23:22.299Z,5.01
2023-12-12T20:25:49.215Z,5.04
2023-12-12T20:28:19.057Z,5.05
2023-12-12T20:30:52.073Z,5.06
2023-12-12T20:33:22.073Z,5.06
2023-12-12T20:35:48.919Z,4.91
2023-12-12T20:38:16.440Z,4.93
2023-12-12T20:40:43.427Z,4.90
2023-12-12T20:43:10.956Z,4.90
2023-12-12T20:45:38.956Z,4.87
2023-12-12T20:48:09.009Z,4.88
2023-12-12T20:50:44.576Z,4.86
2023-12-12T20:53:11.845Z,4.86
2023-12-12T20:55:41.391Z,4.90
2023-12-12T20:58:18.283Z,4.98
2023-12-12T21:00:45.547Z,4.98
2023-12-12T21:03:13.397Z,4.97
2023-12-12T21:05:41.527Z,5.00
2023-12-12T21:08:08.702Z,4.99
2023-12-12T21:10:37.452Z,4.98
2023-12-12T21:13:07.594Z,4.97
2023-12-12T21:15:34.523Z,4.99
2023-12-12T21:18:01.784Z,5.02
2023-12-12T21:20:29.747Z,4.99
2023-12-12T21:22:57.103Z,4.92
2023-12-12T21:25:24.002Z,4.84
2023-12-12T21:27:51.490Z,4.87
2023-12-12T21:30:19.472Z,4.93
2023-12-12T21:32:47.494Z,4.95
2023-12-12T21:35:14.386Z,4.98
2023-12-12T21:37:44.602Z,4.95
2023-12-12T21:40:12.311Z,4.91
2023-12-12T21:42:39.566Z,4.91
2023-12-12T21:45:06.805Z,4.90
2023-12-12T21:47:34.291Z,4.89
2023-12-12T21:50:01.432Z,4.88
2023-12-12T21:52:30.825Z,4.91
2023-12-12T21:54:57.935Z,4.87
2023-12-12T21:57:26.060Z,4.95
2023-12-12T21:59:55.641Z,4.95
2023-12-12T22:02:23.210Z,4.96
2023-12-12T22:04:54.054Z,4.94
2023-12-12T22:07:24.186Z,4.93
2023-12-12T22:09:51.072Z,4.89
2023-12-12T22:12:19.227Z,4.86
2023-12-12T22:14:46.199Z,4.81
2023-12-12T22:17:14.508Z,4.77
2023-12-12T22:19:54.498Z,4.76
2023-12-12T22:22:28.474Z,4.75
2023-12-12T22:24:55.284Z,4.70
2023-12-12T22:27:22.389Z,4.62
2023-12-12T22:29:51.991Z,4.64
2023-12-12T22:32:20.404Z,4.72
2023-12-12T22:34:47.244Z,4.75
2023-12-12T22:37:14.334Z,4.75
2023-12-12T22:39:43.780Z,4.70
2023-12-12T22:42:11.087Z,4.67
2023-12-12T22:44:37.945Z,4.60
2023-12-12T22:47:05.175Z,4.62
2023-12-12T22:49:32.138Z,4.57
2023-12-12T22:51:59.475Z,4.53
2023-12-12T22:54:26.250Z,4.57
2023-12-12T22:56:56.345Z,4.60
2023-12-12T22:59:24.445Z,4.64
2023-12-12T23:01:52.515Z,4.63
2023-12-12T23:04:19.409Z,4.58
2023-12-12T23:06:47.314Z,4.53
2023-12-12T23:09:16.324Z,4.54
2023-12-12T23:11:43.435Z,4.49
2023-12-12T23:14:10.246Z,4.49
2023-12-12T23:16:40.265Z,4.53
2023-12-12T23:19:07.582Z,4.49
2023-12-12T23:21:37.030Z,4.45
2023-12-12T23:24:05.792Z,4.42
2023-12-12T23:26:35.222Z,4.49
2023-12-12T23:29:02.080Z,4.49
2023-12-12T23:31:29.776Z,4.48
2023-12-12T23:33:56.818Z,4.49
2023-12-12T23:36:23.956Z,4.36
2023-12-12T23:38:50.821Z,4.42
2023-12-12T23:41:17.910Z,4.42
2023-12-12T23:43:47.915Z,4.48
2023-12-12T23:46:17.980Z,4.52
2023-12-12T23:48:44.791Z,4.45
2023-12-12T23:51:21.309Z,4.42
2023-12-12T23:53:48.230Z,4.47
2023-12-12T23:56:15.361Z,4.45
2023-12-12T23:58:42.380Z,4.46
